LNK3136 FHAW-FHSH
Flight info
| Callsign | LNK3136 |
|---|---|
| Flight time | 1h 42m |
| Altitude | 37000 |
| Route | ASI DCT SH |
| Aircraft | E190/M-SDE3GILORVW/S |
Departure
| Time | 2026-05-06 14:24 |
|---|---|
| Airport | RAF Ascension Island (FHAW) |
Arrival
| Time | 2026-05-06 16:07 |
|---|---|
| Airport | Saint Helena International Airport (FHSH) |
| Time | Latitude | Longitude | Altitude | Speed | Heading |
|---|---|---|---|---|---|
| 2026-05-06 14:10 | -7.96790 | -14.40381 | 276 ft | 0 kts | 63° |
| 2026-05-06 14:11 | -7.96787 | -14.40375 | 272 ft | 0 kts | 63° |
| 2026-05-06 14:11 | -7.96790 | -14.40381 | 277 ft | 0 kts | 63° |
| 2026-05-06 14:22 | -7.96787 | -14.40373 | 279 ft | 4 kts | 63° |
| 2026-05-06 14:22 | -7.96767 | -14.40332 | 278 ft | 9 kts | 68° |
| 2026-05-06 14:22 | -7.96742 | -14.40262 | 283 ft | 8 kts | 50° |
| 2026-05-06 14:23 | -7.96696 | -14.40291 | 279 ft | 12 kts | 296° |
| 2026-05-06 14:23 | -7.96632 | -14.40383 | 277 ft | 19 kts | 317° |
| 2026-05-06 14:23 | -7.96529 | -14.40480 | 271 ft | 22 kts | 318° |
| 2026-05-06 14:23 | -7.96405 | -14.40572 | 268 ft | 21 kts | 13° |
| 2026-05-06 14:24 | -7.96430 | -14.40418 | 272 ft | 46 kts | 116° |
| 2026-05-06 14:24 | -7.96680 | -14.39923 | 287 ft | 110 kts | 117° |
| 2026-05-06 14:24 | -7.97112 | -14.39073 | 416 ft | 157 kts | 117° |
| 2026-05-06 14:24 | -7.97628 | -14.38073 | 1257 ft | 150 kts | 117° |
| 2026-05-06 14:25 | -7.98093 | -14.37149 | 1921 ft | 149 kts | 116° |
| 2026-05-06 14:25 | -7.98561 | -14.36231 | 2956 ft | 145 kts | 115° |
| 2026-05-06 14:25 | -7.99053 | -14.35281 | 3690 ft | 161 kts | 116° |
| 2026-05-06 14:25 | -7.99587 | -14.34246 | 4398 ft | 175 kts | 117° |
| 2026-05-06 14:26 | -8.00486 | -14.33329 | 4937 ft | 205 kts | 150° |
| 2026-05-06 14:26 | -8.02015 | -14.32942 | 5305 ft | 248 kts | 167° |
| 2026-05-06 14:26 | -8.03823 | -14.32624 | 5860 ft | 277 kts | 166° |
| 2026-05-06 14:26 | -8.05761 | -14.32247 | 6834 ft | 287 kts | 166° |
| 2026-05-06 14:27 | -8.07725 | -14.31779 | 7885 ft | 294 kts | 161° |
| 2026-05-06 14:27 | -8.09568 | -14.30846 | 8979 ft | 301 kts | 149° |
| 2026-05-06 14:27 | -8.11296 | -14.29591 | 10088 ft | 309 kts | 140° |
| 2026-05-06 14:27 | -8.12876 | -14.28040 | 10838 ft | 330 kts | 133° |
| 2026-05-06 14:28 | -8.14448 | -14.26318 | 11938 ft | 331 kts | 133° |
| 2026-05-06 14:28 | -8.16038 | -14.24621 | 13152 ft | 333 kts | 133° |
| 2026-05-06 14:28 | -8.17654 | -14.22925 | 14209 ft | 337 kts | 133° |
| 2026-05-06 14:28 | -8.19276 | -14.21220 | 15212 ft | 341 kts | 133° |
| 2026-05-06 14:29 | -8.20926 | -14.19477 | 16227 ft | 344 kts | 133° |
| 2026-05-06 14:29 | -8.22590 | -14.17716 | 17208 ft | 348 kts | 132° |
| 2026-05-06 14:29 | -8.24277 | -14.15926 | 17938 ft | 353 kts | 132° |
| 2026-05-06 14:29 | -8.25987 | -14.14116 | 18612 ft | 357 kts | 132° |
| 2026-05-06 14:30 | -8.27687 | -14.12315 | 19153 ft | 362 kts | 132° |
| 2026-05-06 14:30 | -8.29445 | -14.10453 | 19680 ft | 368 kts | 133° |
| 2026-05-06 14:30 | -8.31227 | -14.08563 | 20189 ft | 374 kts | 133° |
| 2026-05-06 14:30 | -8.33035 | -14.06646 | 20714 ft | 379 kts | 133° |
| 2026-05-06 14:31 | -8.34871 | -14.04700 | 21236 ft | 384 kts | 134° |
| 2026-05-06 14:31 | -8.36729 | -14.02730 | 21747 ft | 390 kts | 134° |
| 2026-05-06 14:31 | -8.38612 | -14.00733 | 22249 ft | 394 kts | 134° |
| 2026-05-06 14:31 | -8.40519 | -13.98709 | 22723 ft | 400 kts | 135° |
| 2026-05-06 14:32 | -8.42426 | -13.96688 | 23206 ft | 404 kts | 135° |
| 2026-05-06 14:32 | -8.44383 | -13.94612 | 23650 ft | 409 kts | 135° |
| 2026-05-06 14:32 | -8.46353 | -13.92521 | 24090 ft | 412 kts | 135° |
| 2026-05-06 14:32 | -8.48338 | -13.90411 | 24526 ft | 414 kts | 135° |
| 2026-05-06 14:33 | -8.50332 | -13.88290 | 24949 ft | 417 kts | 135° |
| 2026-05-06 14:33 | -8.52312 | -13.86188 | 25362 ft | 419 kts | 135° |
| 2026-05-06 14:33 | -8.54332 | -13.84044 | 25767 ft | 422 kts | 135° |
| 2026-05-06 14:33 | -8.56360 | -13.81893 | 26122 ft | 425 kts | 136° |
| 2026-05-06 14:34 | -8.58437 | -13.79691 | 26122 ft | 438 kts | 135° |
| 2026-05-06 14:34 | -8.60571 | -13.77425 | 26109 ft | 451 kts | 135° |
| 2026-05-06 14:34 | -8.62740 | -13.75121 | 25911 ft | 460 kts | 135° |
| 2026-05-06 14:34 | -8.64948 | -13.72772 | 25953 ft | 463 kts | 135° |
| 2026-05-06 14:35 | -8.67176 | -13.70404 | 25950 ft | 465 kts | 135° |
| 2026-05-06 14:35 | -8.69413 | -13.68024 | 25944 ft | 466 kts | 135° |
| 2026-05-06 14:35 | -8.71621 | -13.65677 | 25952 ft | 466 kts | 135° |
| 2026-05-06 14:35 | -8.73858 | -13.63297 | 25947 ft | 466 kts | 135° |
| 2026-05-06 14:36 | -8.76100 | -13.60911 | 25950 ft | 466 kts | 135° |
| 2026-05-06 14:36 | -8.78340 | -13.58530 | 25954 ft | 466 kts | 135° |
| 2026-05-06 14:36 | -8.80545 | -13.56184 | 25950 ft | 466 kts | 135° |
| 2026-05-06 14:36 | -8.82786 | -13.53799 | 25954 ft | 466 kts | 135° |
| 2026-05-06 14:37 | -8.85023 | -13.51418 | 25954 ft | 466 kts | 135° |
| 2026-05-06 14:37 | -8.87258 | -13.49038 | 25955 ft | 466 kts | 135° |
| 2026-05-06 14:37 | -8.89470 | -13.46682 | 25951 ft | 466 kts | 135° |
| 2026-05-06 14:37 | -8.91705 | -13.44302 | 25953 ft | 466 kts | 135° |
| 2026-05-06 14:38 | -8.93940 | -13.41921 | 25953 ft | 466 kts | 135° |
| 2026-05-06 14:38 | -8.96175 | -13.39539 | 25952 ft | 466 kts | 135° |
| 2026-05-06 14:38 | -8.98413 | -13.37154 | 25953 ft | 467 kts | 135° |
| 2026-05-06 14:38 | -9.00622 | -13.34799 | 25957 ft | 466 kts | 135° |
| 2026-05-06 14:39 | -9.02862 | -13.32411 | 25955 ft | 467 kts | 135° |
| 2026-05-06 14:39 | -9.05102 | -13.30025 | 25954 ft | 467 kts | 135° |
| 2026-05-06 14:39 | -9.07352 | -13.27626 | 25956 ft | 466 kts | 135° |
| 2026-05-06 14:39 | -9.09563 | -13.25266 | 25956 ft | 466 kts | 135° |
| 2026-05-06 14:40 | -9.11802 | -13.22878 | 25956 ft | 466 kts | 135° |
| 2026-05-06 14:40 | -9.14033 | -13.20497 | 25960 ft | 466 kts | 135° |
| 2026-05-06 14:40 | -9.15515 | -13.18915 | 25958 ft | 466 kts | 135° |
| 2026-05-06 14:40 | -9.18483 | -13.15748 | 25955 ft | 467 kts | 135° |
| 2026-05-06 14:41 | -9.19988 | -13.14140 | 25955 ft | 467 kts | 135° |
| 2026-05-06 14:41 | -9.22204 | -13.11777 | 25961 ft | 467 kts | 135° |
| 2026-05-06 14:41 | -9.24443 | -13.09383 | 25957 ft | 467 kts | 135° |
| 2026-05-06 14:41 | -9.26678 | -13.06994 | 25960 ft | 467 kts | 135° |
| 2026-05-06 14:42 | -9.28912 | -13.04607 | 25960 ft | 467 kts | 135° |
| 2026-05-06 14:42 | -9.31151 | -13.02213 | 25960 ft | 467 kts | 135° |
| 2026-05-06 14:42 | -9.33386 | -12.99825 | 25964 ft | 467 kts | 135° |
| 2026-05-06 14:42 | -9.35627 | -12.97428 | 25962 ft | 467 kts | 135° |
| 2026-05-06 14:43 | -9.37834 | -12.95068 | 25961 ft | 467 kts | 135° |
| 2026-05-06 14:43 | -9.40096 | -12.92647 | 25962 ft | 467 kts | 135° |
| 2026-05-06 14:43 | -9.42304 | -12.90286 | 25962 ft | 467 kts | 135° |
| 2026-05-06 14:43 | -9.44553 | -12.87881 | 25963 ft | 468 kts | 135° |
| 2026-05-06 14:44 | -9.46797 | -12.85481 | 25963 ft | 467 kts | 135° |
| 2026-05-06 14:44 | -9.49014 | -12.83109 | 25960 ft | 468 kts | 135° |
| 2026-05-06 14:44 | -9.51250 | -12.80716 | 25966 ft | 468 kts | 135° |
| 2026-05-06 14:45 | -9.55732 | -12.75918 | 25964 ft | 468 kts | 134° |
| 2026-05-06 14:45 | -9.57969 | -12.73520 | 25964 ft | 468 kts | 135° |
| 2026-05-06 14:45 | -9.60181 | -12.71148 | 25966 ft | 468 kts | 135° |
| 2026-05-06 14:45 | -9.62420 | -12.68749 | 25964 ft | 468 kts | 134° |
| 2026-05-06 14:46 | -9.64664 | -12.66343 | 25964 ft | 468 kts | 135° |
| 2026-05-06 14:46 | -9.66905 | -12.63941 | 25966 ft | 468 kts | 135° |
| 2026-05-06 14:46 | -9.69141 | -12.61543 | 25965 ft | 468 kts | 135° |
| 2026-05-06 14:46 | -9.71387 | -12.59134 | 25964 ft | 468 kts | 134° |
| 2026-05-06 14:47 | -9.73628 | -12.56730 | 25965 ft | 468 kts | 134° |
| 2026-05-06 14:47 | -9.75840 | -12.54356 | 25966 ft | 469 kts | 134° |
| 2026-05-06 14:47 | -9.78087 | -12.51944 | 25965 ft | 469 kts | 134° |
| 2026-05-06 14:47 | -9.80329 | -12.49537 | 25964 ft | 469 kts | 134° |
| 2026-05-06 14:48 | -9.82572 | -12.47130 | 25965 ft | 469 kts | 134° |
| 2026-05-06 14:48 | -9.84811 | -12.44726 | 25961 ft | 469 kts | 134° |
| 2026-05-06 14:48 | -9.87059 | -12.42310 | 25967 ft | 469 kts | 134° |
| 2026-05-06 14:48 | -9.89302 | -12.39900 | 25968 ft | 469 kts | 134° |
| 2026-05-06 14:49 | -9.91514 | -12.37523 | 25968 ft | 469 kts | 134° |
| 2026-05-06 14:49 | -9.93756 | -12.35112 | 25968 ft | 469 kts | 134° |
| 2026-05-06 14:49 | -9.96000 | -12.32699 | 25968 ft | 469 kts | 134° |
| 2026-05-06 14:49 | -9.98254 | -12.30276 | 25967 ft | 470 kts | 134° |
| 2026-05-06 14:50 | -10.00469 | -12.27895 | 25970 ft | 470 kts | 134° |
| 2026-05-06 14:50 | -10.02718 | -12.25477 | 25967 ft | 470 kts | 134° |
| 2026-05-06 14:50 | -10.04959 | -12.23064 | 25967 ft | 470 kts | 134° |
| 2026-05-06 14:50 | -10.07213 | -12.20637 | 25968 ft | 469 kts | 134° |
| 2026-05-06 14:51 | -10.09452 | -12.18228 | 25968 ft | 469 kts | 134° |
| 2026-05-06 14:51 | -10.11668 | -12.15843 | 25969 ft | 470 kts | 134° |
| 2026-05-06 14:51 | -10.13911 | -12.13426 | 25974 ft | 470 kts | 134° |
| 2026-05-06 14:51 | -10.16161 | -12.11003 | 25972 ft | 470 kts | 134° |
| 2026-05-06 14:52 | -10.18405 | -12.08584 | 25970 ft | 470 kts | 134° |
| 2026-05-06 14:52 | -10.20618 | -12.06197 | 25972 ft | 470 kts | 134° |
| 2026-05-06 14:52 | -10.22872 | -12.03768 | 25971 ft | 470 kts | 134° |
| 2026-05-06 14:52 | -10.25116 | -12.01349 | 25969 ft | 470 kts | 134° |
| 2026-05-06 14:53 | -10.27366 | -11.98922 | 25968 ft | 470 kts | 134° |
| 2026-05-06 14:53 | -10.29582 | -11.96533 | 25968 ft | 470 kts | 134° |
| 2026-05-06 14:53 | -10.31826 | -11.94112 | 25971 ft | 469 kts | 134° |
| 2026-05-06 14:53 | -10.34073 | -11.91687 | 25973 ft | 470 kts | 134° |
| 2026-05-06 14:54 | -10.36315 | -11.89268 | 25970 ft | 470 kts | 134° |
| 2026-05-06 14:54 | -10.38553 | -11.86851 | 25970 ft | 469 kts | 134° |
| 2026-05-06 14:54 | -10.40793 | -11.84433 | 25970 ft | 470 kts | 134° |
| 2026-05-06 14:54 | -10.43009 | -11.82041 | 25968 ft | 469 kts | 134° |
| 2026-05-06 14:55 | -10.45253 | -11.79617 | 25972 ft | 470 kts | 134° |
| 2026-05-06 14:55 | -10.47495 | -11.77194 | 25971 ft | 470 kts | 134° |
| 2026-05-06 14:55 | -10.49741 | -11.74766 | 25972 ft | 470 kts | 134° |
| 2026-05-06 14:55 | -10.51960 | -11.72368 | 25974 ft | 470 kts | 134° |
| 2026-05-06 14:56 | -10.54208 | -11.69939 | 25974 ft | 470 kts | 134° |
| 2026-05-06 14:56 | -10.56454 | -11.67508 | 25976 ft | 470 kts | 134° |
| 2026-05-06 14:56 | -10.58676 | -11.65103 | 25973 ft | 470 kts | 134° |
| 2026-05-06 14:56 | -10.60925 | -11.62671 | 25974 ft | 470 kts | 134° |
| 2026-05-06 14:57 | -10.63165 | -11.60247 | 25974 ft | 470 kts | 134° |
| 2026-05-06 14:57 | -10.65412 | -11.57816 | 25978 ft | 470 kts | 134° |
| 2026-05-06 14:57 | -10.67652 | -11.55389 | 25974 ft | 471 kts | 134° |
| 2026-05-06 14:57 | -10.69866 | -11.52989 | 25976 ft | 471 kts | 134° |
| 2026-05-06 14:58 | -10.72117 | -11.50552 | 25973 ft | 471 kts | 134° |
| 2026-05-06 14:58 | -10.74354 | -11.48129 | 25975 ft | 471 kts | 134° |
| 2026-05-06 14:58 | -10.76598 | -11.45698 | 25975 ft | 470 kts | 134° |
| 2026-05-06 14:58 | -10.78842 | -11.43264 | 25976 ft | 470 kts | 134° |
| 2026-05-06 14:59 | -10.81054 | -11.40866 | 25975 ft | 470 kts | 134° |
| 2026-05-06 14:59 | -10.83300 | -11.38431 | 25977 ft | 470 kts | 134° |
| 2026-05-06 14:59 | -10.85543 | -11.36000 | 25976 ft | 471 kts | 134° |
| 2026-05-06 14:59 | -10.87787 | -11.33566 | 25975 ft | 471 kts | 134° |
| 2026-05-06 15:00 | -10.90029 | -11.31132 | 25973 ft | 471 kts | 134° |
| 2026-05-06 15:00 | -10.92273 | -11.28694 | 25978 ft | 471 kts | 134° |
| 2026-05-06 15:00 | -10.94488 | -11.26287 | 25976 ft | 471 kts | 134° |
| 2026-05-06 15:00 | -10.96734 | -11.23848 | 25982 ft | 472 kts | 134° |
| 2026-05-06 15:01 | -10.98976 | -11.21411 | 25981 ft | 471 kts | 134° |
| 2026-05-06 15:01 | -11.01216 | -11.18976 | 25981 ft | 471 kts | 134° |
| 2026-05-06 15:01 | -11.03455 | -11.16543 | 25981 ft | 470 kts | 134° |
| 2026-05-06 15:01 | -11.05693 | -11.14111 | 25980 ft | 470 kts | 134° |
| 2026-05-06 15:02 | -11.07936 | -11.11673 | 25980 ft | 470 kts | 134° |
| 2026-05-06 15:02 | -11.10174 | -11.09240 | 25980 ft | 470 kts | 134° |
| 2026-05-06 15:02 | -11.12384 | -11.06836 | 25983 ft | 470 kts | 134° |
| 2026-05-06 15:02 | -11.14621 | -11.04403 | 25982 ft | 470 kts | 134° |
| 2026-05-06 15:03 | -11.16867 | -11.01960 | 25981 ft | 470 kts | 134° |
| 2026-05-06 15:03 | -11.19112 | -10.99516 | 25984 ft | 470 kts | 134° |
| 2026-05-06 15:03 | -11.21346 | -10.97084 | 25984 ft | 470 kts | 134° |
| 2026-05-06 15:03 | -11.23550 | -10.94682 | 25982 ft | 470 kts | 134° |
| 2026-05-06 15:04 | -11.25812 | -10.92218 | 25985 ft | 470 kts | 134° |
| 2026-05-06 15:04 | -11.28047 | -10.89782 | 25987 ft | 470 kts | 134° |
| 2026-05-06 15:04 | -11.30261 | -10.87370 | 25985 ft | 471 kts | 134° |
| 2026-05-06 15:04 | -11.32502 | -10.84927 | 25987 ft | 470 kts | 134° |
| 2026-05-06 15:05 | -11.34744 | -10.82481 | 25986 ft | 470 kts | 134° |
| 2026-05-06 15:05 | -11.36948 | -10.80075 | 25987 ft | 470 kts | 134° |
| 2026-05-06 15:05 | -11.39185 | -10.77634 | 25986 ft | 470 kts | 134° |
| 2026-05-06 15:05 | -11.41421 | -10.75194 | 25985 ft | 469 kts | 135° |
| 2026-05-06 15:06 | -11.43662 | -10.72749 | 25992 ft | 470 kts | 134° |
| 2026-05-06 15:06 | -11.45866 | -10.70343 | 25988 ft | 470 kts | 134° |
| 2026-05-06 15:06 | -11.48095 | -10.67910 | 25988 ft | 470 kts | 134° |
| 2026-05-06 15:06 | -11.50327 | -10.65473 | 25989 ft | 470 kts | 134° |
| 2026-05-06 15:07 | -11.52558 | -10.63034 | 25989 ft | 470 kts | 134° |
| 2026-05-06 15:07 | -11.54792 | -10.60590 | 25989 ft | 470 kts | 134° |
| 2026-05-06 15:07 | -11.57020 | -10.58153 | 25992 ft | 470 kts | 135° |
| 2026-05-06 15:07 | -11.59254 | -10.55710 | 25993 ft | 470 kts | 134° |
| 2026-05-06 15:08 | -11.61492 | -10.53261 | 25993 ft | 470 kts | 134° |
| 2026-05-06 15:08 | -11.63703 | -10.50843 | 25993 ft | 470 kts | 134° |
| 2026-05-06 15:08 | -11.65933 | -10.48403 | 25992 ft | 470 kts | 134° |
| 2026-05-06 15:08 | -11.68169 | -10.45958 | 25992 ft | 470 kts | 135° |
| 2026-05-06 15:09 | -11.70403 | -10.43512 | 25993 ft | 470 kts | 135° |
| 2026-05-06 15:09 | -11.72636 | -10.41068 | 25996 ft | 470 kts | 134° |
| 2026-05-06 15:09 | -11.74842 | -10.38651 | 25992 ft | 469 kts | 134° |
| 2026-05-06 15:09 | -11.77071 | -10.36208 | 25992 ft | 469 kts | 134° |
| 2026-05-06 15:10 | -11.79303 | -10.33760 | 25993 ft | 469 kts | 134° |
| 2026-05-06 15:10 | -11.81527 | -10.31321 | 25994 ft | 469 kts | 134° |
| 2026-05-06 15:10 | -11.83733 | -10.28902 | 25992 ft | 469 kts | 135° |
| 2026-05-06 15:10 | -11.85894 | -10.26448 | 25975 ft | 453 kts | 133° |
| 2026-05-06 15:11 | -11.87903 | -10.24067 | 25930 ft | 432 kts | 133° |
| 2026-05-06 15:11 | -11.89835 | -10.21841 | 26233 ft | 399 kts | 134° |
| 2026-05-06 15:11 | -11.91657 | -10.19785 | 26616 ft | 389 kts | 135° |
| 2026-05-06 15:11 | -11.93478 | -10.17765 | 27008 ft | 392 kts | 135° |
| 2026-05-06 15:12 | -11.95341 | -10.15708 | 27392 ft | 395 kts | 135° |
| 2026-05-06 15:12 | -11.97219 | -10.13637 | 27767 ft | 398 kts | 135° |
| 2026-05-06 15:12 | -11.99110 | -10.11552 | 28113 ft | 402 kts | 135° |
| 2026-05-06 15:12 | -12.01020 | -10.09444 | 28443 ft | 406 kts | 135° |
| 2026-05-06 15:13 | -12.02955 | -10.07310 | 28785 ft | 410 kts | 135° |
| 2026-05-06 15:13 | -12.04882 | -10.05186 | 29096 ft | 413 kts | 135° |
| 2026-05-06 15:13 | -12.06864 | -10.02998 | 29462 ft | 415 kts | 135° |
| 2026-05-06 15:13 | -12.08831 | -10.00826 | 29818 ft | 417 kts | 136° |
| 2026-05-06 15:14 | -12.10783 | -9.98670 | 30151 ft | 419 kts | 135° |
| 2026-05-06 15:14 | -12.12774 | -9.96469 | 30411 ft | 421 kts | 135° |
| 2026-05-06 15:14 | -12.14772 | -9.94262 | 30684 ft | 423 kts | 135° |
| 2026-05-06 15:14 | -12.16755 | -9.92073 | 30940 ft | 425 kts | 135° |
| 2026-05-06 15:15 | -12.18769 | -9.89848 | 31206 ft | 427 kts | 135° |
| 2026-05-06 15:15 | -12.20805 | -9.87599 | 31466 ft | 429 kts | 135° |
| 2026-05-06 15:15 | -12.22838 | -9.85351 | 31730 ft | 431 kts | 135° |
| 2026-05-06 15:15 | -12.24881 | -9.83093 | 31979 ft | 433 kts | 135° |
| 2026-05-06 15:16 | -12.26909 | -9.80851 | 32231 ft | 435 kts | 135° |
| 2026-05-06 15:16 | -12.28973 | -9.78568 | 32483 ft | 437 kts | 135° |
| 2026-05-06 15:16 | -12.31047 | -9.76273 | 32732 ft | 439 kts | 135° |
| 2026-05-06 15:16 | -12.33132 | -9.73965 | 32990 ft | 441 kts | 135° |
| 2026-05-06 15:17 | -12.35193 | -9.71684 | 33224 ft | 444 kts | 135° |
| 2026-05-06 15:17 | -12.37302 | -9.69349 | 33453 ft | 446 kts | 135° |
| 2026-05-06 15:17 | -12.39411 | -9.67014 | 33687 ft | 448 kts | 135° |
| 2026-05-06 15:17 | -12.41531 | -9.64665 | 33915 ft | 450 kts | 135° |
| 2026-05-06 15:18 | -12.43664 | -9.62302 | 34114 ft | 452 kts | 135° |
| 2026-05-06 15:18 | -12.45799 | -9.59936 | 34305 ft | 453 kts | 135° |
| 2026-05-06 15:18 | -12.47917 | -9.57588 | 34498 ft | 454 kts | 135° |
| 2026-05-06 15:18 | -12.50060 | -9.55212 | 34690 ft | 456 kts | 135° |
| 2026-05-06 15:19 | -12.52220 | -9.52816 | 34882 ft | 457 kts | 135° |
| 2026-05-06 15:19 | -12.54381 | -9.50419 | 35061 ft | 458 kts | 135° |
| 2026-05-06 15:19 | -12.56546 | -9.48016 | 35244 ft | 459 kts | 135° |
| 2026-05-06 15:19 | -12.58719 | -9.45605 | 35413 ft | 461 kts | 135° |
| 2026-05-06 15:20 | -12.60895 | -9.43189 | 35578 ft | 462 kts | 135° |
| 2026-05-06 15:20 | -12.63050 | -9.40797 | 35737 ft | 463 kts | 135° |
| 2026-05-06 15:20 | -12.65245 | -9.38360 | 35889 ft | 464 kts | 135° |
| 2026-05-06 15:20 | -12.67442 | -9.35920 | 36031 ft | 465 kts | 135° |
| 2026-05-06 15:21 | -12.69648 | -9.33469 | 36170 ft | 467 kts | 135° |
| 2026-05-06 15:21 | -12.71835 | -9.31039 | 36302 ft | 468 kts | 135° |
| 2026-05-06 15:21 | -12.74045 | -9.28583 | 36428 ft | 469 kts | 135° |
| 2026-05-06 15:21 | -12.76265 | -9.26115 | 36555 ft | 470 kts | 135° |
| 2026-05-06 15:22 | -12.78482 | -9.23649 | 36675 ft | 471 kts | 135° |
| 2026-05-06 15:22 | -12.80677 | -9.21208 | 36792 ft | 472 kts | 134° |
| 2026-05-06 15:22 | -12.82905 | -9.18728 | 36914 ft | 473 kts | 134° |
| 2026-05-06 15:22 | -12.85137 | -9.16244 | 37025 ft | 473 kts | 134° |
| 2026-05-06 15:23 | -12.87374 | -9.13754 | 37127 ft | 475 kts | 134° |
| 2026-05-06 15:23 | -12.89614 | -9.11261 | 37231 ft | 475 kts | 134° |
| 2026-05-06 15:23 | -12.91864 | -9.08755 | 37336 ft | 476 kts | 134° |
| 2026-05-06 15:24 | -12.96335 | -9.03773 | 37528 ft | 477 kts | 134° |
| 2026-05-06 15:24 | -13.00842 | -8.98749 | 37704 ft | 479 kts | 134° |
| 2026-05-06 15:25 | -13.05373 | -8.93696 | 37862 ft | 481 kts | 134° |
| 2026-05-06 15:25 | -13.09892 | -8.88653 | 38033 ft | 482 kts | 134° |
| 2026-05-06 15:26 | -13.13671 | -8.84434 | 38186 ft | 482 kts | 134° |
| 2026-05-06 15:26 | -13.16680 | -8.81071 | 38348 ft | 482 kts | 134° |
| 2026-05-06 15:26 | -13.18956 | -8.78527 | 38462 ft | 482 kts | 134° |
| 2026-05-06 15:26 | -13.21229 | -8.75986 | 38580 ft | 482 kts | 134° |
| 2026-05-06 15:27 | -13.23470 | -8.73478 | 38691 ft | 481 kts | 134° |
| 2026-05-06 15:27 | -13.28005 | -8.68405 | 38873 ft | 481 kts | 134° |
| 2026-05-06 15:27 | -13.30259 | -8.65880 | 39208 ft | 474 kts | 134° |
| 2026-05-06 15:28 | -13.32467 | -8.63403 | 39180 ft | 477 kts | 134° |
| 2026-05-06 15:28 | -13.36223 | -8.59203 | 39060 ft | 481 kts | 134° |
| 2026-05-06 15:29 | -13.40739 | -8.54151 | 39016 ft | 480 kts | 134° |
| 2026-05-06 15:29 | -13.45283 | -8.49059 | 39028 ft | 481 kts | 134° |
| 2026-05-06 15:30 | -13.50531 | -8.43175 | 39026 ft | 481 kts | 134° |
| 2026-05-06 15:30 | -13.54322 | -8.38923 | 39028 ft | 481 kts | 134° |
| 2026-05-06 15:31 | -13.58825 | -8.33869 | 39026 ft | 481 kts | 134° |
| 2026-05-06 15:31 | -13.63355 | -8.28782 | 39029 ft | 481 kts | 134° |
| 2026-05-06 15:32 | -13.70110 | -8.21191 | 39026 ft | 481 kts | 134° |
| 2026-05-06 15:32 | -13.74643 | -8.16091 | 39033 ft | 481 kts | 134° |
| 2026-05-06 15:33 | -13.79138 | -8.11033 | 39034 ft | 481 kts | 134° |
| 2026-05-06 15:33 | -13.83663 | -8.05941 | 39032 ft | 481 kts | 134° |
| 2026-05-06 15:34 | -13.88157 | -8.00874 | 39035 ft | 482 kts | 135° |
| 2026-05-06 15:34 | -13.92689 | -7.95765 | 39031 ft | 482 kts | 135° |
| 2026-05-06 15:35 | -13.97189 | -7.90688 | 39035 ft | 482 kts | 135° |
| 2026-05-06 15:35 | -14.01721 | -7.85575 | 39039 ft | 482 kts | 135° |
| 2026-05-06 15:36 | -14.06218 | -7.80495 | 39040 ft | 482 kts | 135° |
| 2026-05-06 15:36 | -14.10746 | -7.75376 | 39040 ft | 482 kts | 135° |
| 2026-05-06 15:37 | -14.15241 | -7.70294 | 39035 ft | 482 kts | 135° |
| 2026-05-06 15:37 | -14.19765 | -7.65173 | 39038 ft | 482 kts | 135° |
| 2026-05-06 15:38 | -14.24260 | -7.60086 | 39038 ft | 482 kts | 135° |
| 2026-05-06 15:38 | -14.28780 | -7.54967 | 39038 ft | 482 kts | 135° |
| 2026-05-06 15:39 | -14.33278 | -7.49866 | 39037 ft | 482 kts | 135° |
| 2026-05-06 15:39 | -14.37792 | -7.44747 | 39039 ft | 482 kts | 135° |
| 2026-05-06 15:40 | -14.42298 | -7.39630 | 39055 ft | 472 kts | 135° |
| 2026-05-06 15:40 | -14.44447 | -7.37187 | 39070 ft | 454 kts | 135° |
| 2026-05-06 15:40 | -14.46530 | -7.34813 | 39029 ft | 437 kts | 135° |
| 2026-05-06 15:41 | -14.48516 | -7.32552 | 39019 ft | 423 kts | 135° |
| 2026-05-06 15:41 | -14.50484 | -7.30317 | 39088 ft | 417 kts | 135° |
| 2026-05-06 15:41 | -14.54432 | -7.25841 | 39066 ft | 422 kts | 135° |
| 2026-05-06 15:42 | -14.58386 | -7.21346 | 39080 ft | 427 kts | 135° |
| 2026-05-06 15:42 | -14.62397 | -7.16773 | 39110 ft | 430 kts | 135° |
| 2026-05-06 15:43 | -14.66411 | -7.12201 | 39062 ft | 432 kts | 135° |
| 2026-05-06 15:43 | -14.70426 | -7.07625 | 39031 ft | 429 kts | 135° |
| 2026-05-06 15:44 | -14.74446 | -7.03045 | 39056 ft | 429 kts | 135° |
| 2026-05-06 15:44 | -14.78445 | -6.98476 | 39059 ft | 430 kts | 135° |
| 2026-05-06 15:45 | -14.82455 | -6.93877 | 38811 ft | 435 kts | 135° |
| 2026-05-06 15:45 | -14.84547 | -6.91508 | 37233 ft | 456 kts | 135° |
| 2026-05-06 15:45 | -14.86760 | -6.89041 | 35673 ft | 476 kts | 135° |
| 2026-05-06 15:46 | -14.89056 | -6.86480 | 34157 ft | 493 kts | 135° |
| 2026-05-06 15:46 | -14.91421 | -6.83833 | 32532 ft | 507 kts | 135° |
| 2026-05-06 15:46 | -14.93717 | -6.81229 | 32538 ft | 483 kts | 135° |
| 2026-05-06 15:46 | -14.95911 | -6.78699 | 32551 ft | 460 kts | 135° |
| 2026-05-06 15:47 | -14.98008 | -6.76286 | 32514 ft | 440 kts | 135° |
| 2026-05-06 15:47 | -15.00014 | -6.73987 | 32458 ft | 422 kts | 135° |
| 2026-05-06 15:47 | -15.01946 | -6.71782 | 32388 ft | 405 kts | 135° |
| 2026-05-06 15:47 | -15.03822 | -6.69641 | 31916 ft | 399 kts | 135° |
| 2026-05-06 15:48 | -15.05696 | -6.67521 | 31160 ft | 406 kts | 136° |
| 2026-05-06 15:48 | -15.07614 | -6.65351 | 30452 ft | 409 kts | 136° |
| 2026-05-06 15:48 | -15.09537 | -6.63170 | 29691 ft | 411 kts | 135° |
| 2026-05-06 15:48 | -15.11468 | -6.60982 | 28887 ft | 412 kts | 135° |
| 2026-05-06 15:49 | -15.13405 | -6.58782 | 28111 ft | 413 kts | 135° |
| 2026-05-06 15:49 | -15.15347 | -6.56575 | 27340 ft | 414 kts | 135° |
| 2026-05-06 15:49 | -15.17272 | -6.54387 | 26595 ft | 414 kts | 135° |
| 2026-05-06 15:49 | -15.19206 | -6.52188 | 25877 ft | 412 kts | 135° |
| 2026-05-06 15:50 | -15.21154 | -6.49977 | 24847 ft | 419 kts | 134° |
| 2026-05-06 15:50 | -15.23146 | -6.47728 | 23775 ft | 426 kts | 134° |
| 2026-05-06 15:50 | -15.25141 | -6.45472 | 22459 ft | 433 kts | 134° |
| 2026-05-06 15:50 | -15.27194 | -6.43149 | 21265 ft | 437 kts | 134° |
| 2026-05-06 15:51 | -15.29202 | -6.40862 | 20969 ft | 417 kts | 134° |
| 2026-05-06 15:51 | -15.31092 | -6.38683 | 20809 ft | 396 kts | 134° |
| 2026-05-06 15:51 | -15.32894 | -6.36621 | 20410 ft | 385 kts | 134° |
| 2026-05-06 15:51 | -15.34676 | -6.34589 | 19956 ft | 377 kts | 134° |
| 2026-05-06 15:52 | -15.36432 | -6.32585 | 19471 ft | 371 kts | 134° |
| 2026-05-06 15:52 | -15.38110 | -6.30658 | 19448 ft | 351 kts | 134° |
| 2026-05-06 15:52 | -15.39697 | -6.28823 | 19384 ft | 334 kts | 134° |
| 2026-05-06 15:52 | -15.41240 | -6.27043 | 19068 ft | 328 kts | 134° |
| 2026-05-06 15:53 | -15.42763 | -6.25299 | 18691 ft | 324 kts | 135° |
| 2026-05-06 15:53 | -15.44281 | -6.23567 | 18251 ft | 323 kts | 135° |
| 2026-05-06 15:53 | -15.45768 | -6.21866 | 17729 ft | 323 kts | 135° |
| 2026-05-06 15:53 | -15.47284 | -6.20133 | 17163 ft | 324 kts | 134° |
| 2026-05-06 15:54 | -15.48802 | -6.18402 | 16618 ft | 325 kts | 134° |
| 2026-05-06 15:54 | -15.50324 | -6.16665 | 16091 ft | 324 kts | 134° |
| 2026-05-06 15:54 | -15.51843 | -6.14927 | 15588 ft | 324 kts | 134° |
| 2026-05-06 15:54 | -15.53336 | -6.13219 | 15103 ft | 323 kts | 133° |
| 2026-05-06 15:55 | -15.54840 | -6.11494 | 14681 ft | 321 kts | 133° |
| 2026-05-06 15:55 | -15.56339 | -6.09775 | 14261 ft | 318 kts | 133° |
| 2026-05-06 15:55 | -15.57821 | -6.08077 | 13833 ft | 316 kts | 133° |
| 2026-05-06 15:55 | -15.59285 | -6.06391 | 13410 ft | 312 kts | 133° |
| 2026-05-06 15:56 | -15.60713 | -6.04751 | 12972 ft | 309 kts | 133° |
| 2026-05-06 15:56 | -15.62157 | -6.03096 | 12552 ft | 306 kts | 133° |
| 2026-05-06 15:56 | -15.63582 | -6.01462 | 12134 ft | 303 kts | 133° |
| 2026-05-06 15:56 | -15.64989 | -5.99847 | 11716 ft | 300 kts | 132° |
| 2026-05-06 15:57 | -15.66383 | -5.98243 | 11312 ft | 297 kts | 132° |
| 2026-05-06 15:57 | -15.67747 | -5.96671 | 10913 ft | 295 kts | 132° |
| 2026-05-06 15:57 | -15.69110 | -5.95106 | 10573 ft | 290 kts | 132° |
| 2026-05-06 15:57 | -15.70460 | -5.93557 | 10197 ft | 287 kts | 132° |
| 2026-05-06 15:58 | -15.71795 | -5.92029 | 9652 ft | 281 kts | 132° |
| 2026-05-06 15:58 | -15.73085 | -5.90524 | 8930 ft | 279 kts | 127° |
| 2026-05-06 15:58 | -15.73912 | -5.88711 | 8445 ft | 281 kts | 102° |
| 2026-05-06 15:58 | -15.74082 | -5.86715 | 8093 ft | 279 kts | 94° |
| 2026-05-06 15:59 | -15.74157 | -5.84712 | 7709 ft | 276 kts | 95° |
| 2026-05-06 15:59 | -15.74242 | -5.82718 | 7339 ft | 274 kts | 95° |
| 2026-05-06 15:59 | -15.74342 | -5.80749 | 6958 ft | 271 kts | 96° |
| 2026-05-06 15:59 | -15.74455 | -5.78801 | 6607 ft | 268 kts | 96° |
| 2026-05-06 16:00 | -15.74568 | -5.76894 | 6242 ft | 265 kts | 96° |
| 2026-05-06 16:00 | -15.74689 | -5.75003 | 5915 ft | 261 kts | 96° |
| 2026-05-06 16:00 | -15.74817 | -5.73140 | 5583 ft | 257 kts | 96° |
| 2026-05-06 16:00 | -15.74947 | -5.71305 | 5328 ft | 250 kts | 96° |
| 2026-05-06 16:01 | -15.75061 | -5.69563 | 5321 ft | 233 kts | 96° |
| 2026-05-06 16:01 | -15.75348 | -5.67991 | 5334 ft | 210 kts | 110° |
| 2026-05-06 16:01 | -15.75861 | -5.66610 | 5089 ft | 201 kts | 112° |
| 2026-05-06 16:01 | -15.76339 | -5.65309 | 4983 ft | 186 kts | 110° |
| 2026-05-06 16:02 | -15.76743 | -5.64125 | 4916 ft | 164 kts | 109° |
| 2026-05-06 16:02 | -15.77109 | -5.63025 | 4610 ft | 158 kts | 111° |
| 2026-05-06 16:02 | -15.77658 | -5.62052 | 4242 ft | 155 kts | 129° |
| 2026-05-06 16:02 | -15.78481 | -5.61357 | 3849 ft | 157 kts | 147° |
| 2026-05-06 16:03 | -15.79536 | -5.61007 | 3427 ft | 163 kts | 167° |
| 2026-05-06 16:03 | -15.80726 | -5.61084 | 2930 ft | 179 kts | 184° |
| 2026-05-06 16:03 | -15.81917 | -5.61404 | 2950 ft | 182 kts | 189° |
| 2026-05-06 16:03 | -15.83140 | -5.61783 | 2790 ft | 184 kts | 190° |
| 2026-05-06 16:04 | -15.84339 | -5.62157 | 2776 ft | 173 kts | 189° |
| 2026-05-06 16:04 | -15.85477 | -5.62501 | 2739 ft | 167 kts | 188° |
| 2026-05-06 16:04 | -15.86530 | -5.62808 | 2645 ft | 148 kts | 186° |
| 2026-05-06 16:04 | -15.87500 | -5.63026 | 2455 ft | 141 kts | 182° |
| 2026-05-06 16:05 | -15.88454 | -5.63214 | 2274 ft | 139 kts | 182° |
| 2026-05-06 16:05 | -15.89401 | -5.63409 | 2152 ft | 138 kts | 183° |
| 2026-05-06 16:05 | -15.90327 | -5.63613 | 2079 ft | 135 kts | 183° |
| 2026-05-06 16:05 | -15.91260 | -5.63825 | 1932 ft | 139 kts | 184° |
| 2026-05-06 16:06 | -15.92188 | -5.64163 | 1718 ft | 145 kts | 192° |
| 2026-05-06 16:06 | -15.93118 | -5.64523 | 1489 ft | 142 kts | 186° |
| 2026-05-06 16:06 | -15.94071 | -5.64642 | 1227 ft | 134 kts | 170° |
| 2026-05-06 16:06 | -15.94995 | -5.64617 | 1046 ft | 132 kts | 171° |
| 2026-05-06 16:07 | -15.95831 | -5.64593 | 1012 ft | 108 kts | 178° |
| 2026-05-06 16:07 | -15.96464 | -5.64580 | 1012 ft | 63 kts | 178° |
| 2026-05-06 16:07 | -15.96677 | -5.64552 | 1002 ft | 16 kts | 216° |
| 2026-05-06 16:07 | -15.96637 | -5.64579 | 1002 ft | 10 kts | 4° |
| 2026-05-06 16:08 | -15.96535 | -5.64579 | 1004 ft | 20 kts | 0° |
| 2026-05-06 16:08 | -15.96376 | -5.64582 | 1010 ft | 24 kts | 359° |
| 2026-05-06 16:08 | -15.96241 | -5.64587 | 1011 ft | 15 kts | 351° |
| 2026-05-06 16:08 | -15.96212 | -5.64621 | 1010 ft | 1 kts | 283° |
| 2026-05-06 16:09 | -15.96212 | -5.64624 | 1010 ft | 1 kts | 278° |
| 2026-05-06 16:09 | -15.96212 | -5.64633 | 1006 ft | 1 kts | 271° |
| 2026-05-06 16:09 | -15.96213 | -5.64688 | 1007 ft | 15 kts | 269° |
| 2026-05-06 16:09 | -15.96202 | -5.64779 | 1006 ft | 8 kts | 331° |
| 2026-05-06 16:10 | -15.96168 | -5.64806 | 1006 ft | 7 kts | 287° |
| 2026-05-06 16:10 | -15.96185 | -5.64829 | 1005 ft | 3 kts | 175° |
| 2026-05-06 16:10 | -15.96190 | -5.64829 | 1005 ft | 0 kts | 176° |